Hudson Mills, Michigan
Current Conditions -  °F | °C
As of 5:53 PM on Tuesday 27 Jan 2015 (Local Time) from KARB Reporting Station
Clear Clear  
Wind Chill: 11°   Ceiling: Unl
Heat Index: 23°   Visibility: 10mi
Dew Point: 12°   Wind: 13mph
Humidity: 63%   Direction: 350°N
Pressure: 30.17"   Gusts: NA
Location:  42.3528°N, 83.8974°W
Report Text: KARB 272253Z AUTO 35011KT 10SM CLR M05/M11 A3017 RMK AO2 SLP230 T10501111
Loading
Personal Weather Stations






























Interactive Weather Map New forecast layout! Learn more

10-Day Weather Forecast

Advertisements
Track Severe Weather on mobile